Disclaimer

Please do not use the information listed here in-flight or in-navigation, as they are not provided to us by the airports but are provided by volunteers, so they might be outdated.

Search


Regions


Airport information page

Radio informations:
PUCALLPA TWR - 126.9 MHz
PUCALLPA APP - 118.1 MHz

Airport informations:
Latitude: 08° 22' 40.58" S
Longitude: 074° 34' 27.47" W
Elevation: 513 feet - 156 meters
Operating hours: Remarks
Operating agency: Military-civil joint use airport
Timezone: UTC-5
Fuel: Unknown fuel type or whether there is any fuel.

Runway information:
02/20 - 9186 x 148 feet< - >2800 x 45 meters

Recent METARs:
SPCL 211700Z 28002KT 9999 BKN025 BKN070 29/24 Q1013 RMK BIRD HAZARD RWY 02/20 PP000
SPCL 211700Z 28002KT 9999 BKN025 BKN070 29/24 Q1013 RMK BIRD HAZARD RWY 02/20 PP000
SPCL 211800Z 34002KT 9999 BKN025 30/25 Q1012 RMK BIRD HAZARD RWY 02/20 PP000

Airport on the map: